createdAt,value
2023-04-18T00:00:08.043Z,69.20
2023-04-18T00:02:36.835Z,70.40
2023-04-18T00:05:05.794Z,70.20
2023-04-18T00:07:36.256Z,69.80
2023-04-18T00:10:04.881Z,69.50
2023-04-18T00:12:34.566Z,68.90
2023-04-18T00:15:03.113Z,68.50
2023-04-18T00:17:32.371Z,69.00
2023-04-18T00:20:02.560Z,68.30
2023-04-18T00:25:12.795Z,68.80
2023-04-18T00:27:40.459Z,68.70
2023-04-18T00:30:08.997Z,68.90
2023-04-18T00:32:36.733Z,68.80
2023-04-18T00:35:04.591Z,68.60
2023-04-18T00:37:34.655Z,68.70
2023-04-18T00:40:04.977Z,68.00
2023-04-18T00:42:35.422Z,68.00
2023-04-18T00:45:12.885Z,67.90
2023-04-18T00:47:42.185Z,67.90
2023-04-18T00:52:55.331Z,68.20
2023-04-18T00:55:23.045Z,67.50
2023-04-18T01:11:38.081Z,66.40
2023-04-18T01:14:17.811Z,66.30
2023-04-18T01:16:48.518Z,66.30
2023-04-18T01:19:21.941Z,66.00
2023-04-18T01:21:52.732Z,65.80
2023-04-18T01:24:20.582Z,65.70
2023-04-18T01:27:01.884Z,65.70
2023-04-18T01:29:29.920Z,65.50
2023-04-18T01:31:58.527Z,65.30
2023-04-18T01:37:12.135Z,65.30
2023-04-18T01:42:22.147Z,65.40
2023-04-18T01:44:51.846Z,65.30
2023-04-18T01:47:22.448Z,65.30
2023-04-18T01:49:50.164Z,65.30
2023-04-18T01:52:18.666Z,65.20
2023-04-18T01:54:47.066Z,65.00
2023-04-18T01:57:15.112Z,64.70
2023-04-18T01:59:42.845Z,64.60
2023-04-18T02:02:12.297Z,64.40
2023-04-18T02:04:39.888Z,64.10
2023-04-18T02:07:08.299Z,64.10
2023-04-18T02:09:36.771Z,64.10
2023-04-18T02:12:06.852Z,64.00
2023-04-18T02:14:36.706Z,63.70
2023-04-18T02:17:13.528Z,63.50
2023-04-18T02:19:45.252Z,63.50
2023-04-18T02:22:12.834Z,64.00
2023-04-18T02:27:22.038Z,63.10
2023-04-18T02:29:51.984Z,62.70
2023-04-18T02:32:19.569Z,62.60
2023-04-18T02:34:47.541Z,62.00
2023-04-18T02:37:15.282Z,62.50
2023-04-18T02:39:42.923Z,62.60
2023-04-18T02:42:10.578Z,62.40
2023-04-18T02:44:38.221Z,62.10
2023-04-18T02:47:06.341Z,62.20
2023-04-18T02:49:34.436Z,61.20
2023-04-18T02:52:02.102Z,61.60
2023-04-18T02:54:30.003Z,62.10
2023-04-18T02:59:34.750Z,61.20
2023-04-18T03:02:02.476Z,61.70
2023-04-18T03:04:30.324Z,61.70
2023-04-18T03:06:59.549Z,60.80
2023-04-18T03:09:27.312Z,60.30
2023-04-18T03:11:54.961Z,60.20
2023-04-18T03:14:23.501Z,59.10
2023-04-18T03:16:53.837Z,60.80
2023-04-18T03:19:27.360Z,59.90
2023-04-18T03:21:55.298Z,59.80
2023-04-18T03:24:22.989Z,58.80
2023-04-18T03:26:50.796Z,59.90
2023-04-18T03:29:18.515Z,60.00
2023-04-18T03:31:46.171Z,59.00
2023-04-18T03:34:13.986Z,58.90
2023-04-18T03:36:42.503Z,59.10
2023-04-18T03:39:10.994Z,58.70
2023-04-18T03:41:44.345Z,58.60
2023-04-18T03:44:20.998Z,58.60
2023-04-18T03:46:48.622Z,57.30
2023-04-18T03:49:16.412Z,58.30
2023-04-18T03:51:45.484Z,57.90
2023-04-18T03:54:13.544Z,58.10
2023-04-18T03:56:42.004Z,57.60
2023-04-18T03:59:10.416Z,57.70
2023-04-18T04:01:38.256Z,57.10
2023-04-18T04:04:23.671Z,56.90
2023-04-18T04:06:51.528Z,57.80
2023-04-18T04:09:19.220Z,56.80
2023-04-18T04:11:49.472Z,55.90
2023-04-18T04:14:19.981Z,56.00
2023-04-18T04:16:54.152Z,56.60
2023-04-18T04:19:22.088Z,57.30
2023-04-18T04:21:49.657Z,57.10
2023-04-18T04:24:17.256Z,56.80
2023-04-18T04:26:45.378Z,56.40
2023-04-18T04:29:14.173Z,56.30
2023-04-18T04:31:43.214Z,55.70
2023-04-18T04:34:11.802Z,55.20
2023-04-18T04:36:44.028Z,56.80
2023-04-18T04:39:23.903Z,57.30
2023-04-18T04:41:56.666Z,57.10
2023-04-18T04:44:27.117Z,56.40
2023-04-18T04:46:54.758Z,56.80
2023-04-18T04:49:22.358Z,55.30
2023-04-18T04:51:49.974Z,55.00
2023-04-18T04:54:20.379Z,54.10
2023-04-18T04:56:51.569Z,54.70
2023-04-18T04:59:19.169Z,56.00
2023-04-18T05:02:02.240Z,55.30
2023-04-18T05:04:30.201Z,55.80
2023-04-18T05:06:58.361Z,56.00
2023-04-18T05:09:33.577Z,56.30
2023-04-18T05:12:04.367Z,56.30
2023-04-18T05:14:32.274Z,55.30
2023-04-18T05:17:00.302Z,55.20
2023-04-18T05:19:28.022Z,54.90
2023-04-18T05:21:56.037Z,56.20
2023-04-18T05:24:23.709Z,54.60
2023-04-18T05:26:52.102Z,54.70
2023-04-18T05:29:19.729Z,54.80
2023-04-18T05:31:47.437Z,54.90
2023-04-18T05:34:15.608Z,55.30
2023-04-18T05:36:43.983Z,55.80
2023-04-18T05:39:12.876Z,54.20
2023-04-18T05:41:43.715Z,54.70
2023-04-18T05:44:11.363Z,54.60
2023-04-18T05:46:39.374Z,54.70
2023-04-18T05:49:08.899Z,54.70
2023-04-18T05:51:36.575Z,54.80
2023-04-18T05:54:05.124Z,54.30
2023-04-18T05:56:32.931Z,54.50
2023-04-18T05:59:02.714Z,54.50
2023-04-18T06:01:30.337Z,54.60
2023-04-18T06:03:58.400Z,51.10
2023-04-18T06:06:27.228Z,53.90
2023-04-18T06:08:55.206Z,54.20
2023-04-18T06:11:23.728Z,54.70
2023-04-18T06:13:51.318Z,54.60
2023-04-18T06:16:18.995Z,54.10
2023-04-18T06:18:46.650Z,54.60
2023-04-18T06:21:14.593Z,54.20
2023-04-18T06:23:42.391Z,53.40
2023-04-18T06:26:10.293Z,52.90
2023-04-18T06:28:38.140Z,54.20
2023-04-18T06:31:05.820Z,54.20
2023-04-18T06:33:36.723Z,53.60
2023-04-18T06:36:06.051Z,53.50
2023-04-18T06:38:34.086Z,53.00
2023-04-18T06:41:01.723Z,53.70
2023-04-18T06:43:36.446Z,52.80
2023-04-18T06:46:05.516Z,53.90
2023-04-18T06:48:34.130Z,53.40
2023-04-18T06:51:01.773Z,53.30
2023-04-18T06:53:29.434Z,53.70
2023-04-18T06:55:57.180Z,51.50
2023-04-18T06:58:25.739Z,54.00
2023-04-18T07:00:54.427Z,53.00
2023-04-18T07:03:22.312Z,53.10
2023-04-18T07:05:50.942Z,51.80
2023-04-18T07:08:18.560Z,52.30
2023-04-18T07:10:47.093Z,53.60
2023-04-18T07:13:15.535Z,53.30
2023-04-18T07:15:43.243Z,53.10
2023-04-18T07:18:11.250Z,53.40
2023-04-18T07:20:38.975Z,53.50
2023-04-18T07:23:07.272Z,53.10
2023-04-18T07:25:35.737Z,50.70
2023-04-18T07:28:03.593Z,50.50
2023-04-18T07:30:31.633Z,50.70
2023-04-18T07:32:59.302Z,51.90
2023-04-18T07:35:26.929Z,50.70
2023-04-18T07:37:55.685Z,49.60
2023-04-18T07:40:23.469Z,52.00
2023-04-18T07:45:49.510Z,51.80
2023-04-18T07:48:22.389Z,51.60
2023-04-18T07:50:51.043Z,52.10
2023-04-18T07:53:19.281Z,51.50
2023-04-18T07:55:47.149Z,51.10
2023-04-18T07:58:15.030Z,51.50
2023-04-18T08:00:51.924Z,51.70
2023-04-18T08:03:20.066Z,51.10
2023-04-18T08:05:47.894Z,52.40
2023-04-18T08:08:16.292Z,51.40
2023-04-18T08:10:52.816Z,49.80
2023-04-18T08:13:21.485Z,50.70
2023-04-18T08:15:49.323Z,51.80
2023-04-18T08:18:19.970Z,51.10
2023-04-18T08:20:47.576Z,52.30
2023-04-18T08:23:15.384Z,52.30
2023-04-18T08:25:43.485Z,50.60
2023-04-18T08:28:11.280Z,50.40
2023-04-18T08:30:39.825Z,49.10
2023-04-18T08:33:08.995Z,48.60
2023-04-18T08:35:37.440Z,50.00
2023-04-18T08:38:04.999Z,49.80
2023-04-18T08:40:33.494Z,49.10
2023-04-18T08:43:05.233Z,49.30
2023-04-18T08:45:33.579Z,51.70
2023-04-18T08:48:03.914Z,49.80
2023-04-18T08:50:32.688Z,49.60
2023-04-18T08:53:04.259Z,50.60
2023-04-18T08:55:33.866Z,50.00
2023-04-18T08:58:02.095Z,51.30
2023-04-18T09:00:29.728Z,50.40
2023-04-18T09:03:15.817Z,51.10
2023-04-18T09:05:44.250Z,50.70
2023-04-18T09:08:27.071Z,48.10
2023-04-18T09:10:54.678Z,50.10
2023-04-18T09:13:39.111Z,50.00
2023-04-18T09:16:38.101Z,49.10
2023-04-18T09:19:24.335Z,49.10
2023-04-18T09:22:03.589Z,49.60
2023-04-18T09:24:32.712Z,49.80
2023-04-18T09:27:01.462Z,50.70
2023-04-18T09:29:50.260Z,51.60
2023-04-18T09:32:25.590Z,50.90
2023-04-18T09:35:11.841Z,49.20
2023-04-18T09:37:39.476Z,49.80
2023-04-18T09:40:18.823Z,50.30
2023-04-18T09:46:19.817Z,50.40
2023-04-18T09:48:47.504Z,50.40
2023-04-18T09:51:17.063Z,50.40
2023-04-18T09:53:49.746Z,50.80
2023-04-18T09:56:48.230Z,50.90
2023-04-18T09:59:20.505Z,49.30
2023-04-18T10:01:50.081Z,50.50
2023-04-18T10:04:18.387Z,49.30
2023-04-18T10:06:47.583Z,50.30
2023-04-18T10:09:16.419Z,49.70
2023-04-18T10:11:44.950Z,49.20
2023-04-18T10:14:14.078Z,49.30
2023-04-18T10:16:42.744Z,49.00
2023-04-18T10:19:26.547Z,49.50
2023-04-18T10:21:54.073Z,48.20
2023-04-18T10:24:40.243Z,49.80
2023-04-18T10:27:08.111Z,49.80
2023-04-18T10:29:51.627Z,50.50
2023-04-18T10:32:20.968Z,49.60
2023-04-18T10:34:50.120Z,49.80
2023-04-18T10:37:19.144Z,50.20
2023-04-18T10:39:52.590Z,50.70
2023-04-18T10:42:40.897Z,51.20
2023-04-18T10:45:21.578Z,50.60
2023-04-18T10:47:49.317Z,50.70
2023-04-18T10:50:17.408Z,49.30
2023-04-18T10:52:45.096Z,51.20
2023-04-18T10:55:26.680Z,50.60
2023-04-18T10:57:56.745Z,50.10
2023-04-18T11:00:24.492Z,49.60
2023-04-18T11:02:54.181Z,49.40
2023-04-18T11:05:23.056Z,50.70
2023-04-18T11:07:54.136Z,49.60
2023-04-18T11:10:24.528Z,50.30
2023-04-18T11:12:53.483Z,50.90
2023-04-18T11:15:22.458Z,49.70
2023-04-18T11:18:05.613Z,50.10
2023-04-18T11:20:40.038Z,50.60
2023-04-18T11:23:16.361Z,50.10
2023-04-18T11:25:45.183Z,50.70
2023-04-18T11:28:23.176Z,50.60
2023-04-18T11:31:12.241Z,51.10
2023-04-18T11:33:39.985Z,50.90
2023-04-18T11:36:07.874Z,50.70
2023-04-18T11:38:37.398Z,50.70
2023-04-18T11:41:05.279Z,51.00
2023-04-18T11:43:32.866Z,51.10
2023-04-18T11:46:01.315Z,51.20
2023-04-18T11:48:42.036Z,51.20
2023-04-18T11:51:31.081Z,51.40
2023-04-18T11:53:58.675Z,51.40
2023-04-18T11:56:26.321Z,51.50
2023-04-18T11:58:54.058Z,52.00
2023-04-18T12:01:22.719Z,51.80
2023-04-18T12:04:04.080Z,51.80
2023-04-18T12:06:48.339Z,51.90
2023-04-18T12:09:16.771Z,51.80
2023-04-18T12:11:45.279Z,51.80
2023-04-18T12:14:22.365Z,52.00
2023-04-18T12:16:51.335Z,52.30
2023-04-18T12:19:20.970Z,52.30
2023-04-18T12:22:01.122Z,52.30
2023-04-18T12:24:33.133Z,52.40
2023-04-18T12:27:01.650Z,52.40
2023-04-18T12:29:29.809Z,52.20
2023-04-18T12:31:57.525Z,52.30
2023-04-18T12:34:25.115Z,52.50
2023-04-18T12:36:53.000Z,52.60
2023-04-18T12:39:20.609Z,52.50
2023-04-18T12:41:49.750Z,52.80
2023-04-18T12:44:17.861Z,53.00
2023-04-18T12:46:45.612Z,53.30
2023-04-18T12:49:14.096Z,53.00
2023-04-18T12:51:41.707Z,52.90
2023-04-18T12:54:10.115Z,52.90
2023-04-18T12:56:37.726Z,53.20
2023-04-18T12:59:05.407Z,53.20
2023-04-18T13:01:33.107Z,53.60
2023-04-18T13:04:11.800Z,53.70
2023-04-18T13:06:41.057Z,53.60
2023-04-18T13:09:09.475Z,53.80
2023-04-18T13:11:37.055Z,53.60
2023-04-18T13:14:04.721Z,53.80
2023-04-18T13:16:32.363Z,53.80
2023-04-18T13:19:00.168Z,53.70
2023-04-18T13:21:27.804Z,53.80
2023-04-18T13:23:55.450Z,54.00
2023-04-18T13:26:24.094Z,54.00
2023-04-18T13:28:52.160Z,54.10
2023-04-18T13:31:19.752Z,54.10
2023-04-18T13:33:48.208Z,54.20
2023-04-18T13:36:16.588Z,54.20
2023-04-18T13:38:44.654Z,54.30
2023-04-18T13:41:13.453Z,54.40
2023-04-18T13:43:42.180Z,54.40
2023-04-18T13:46:09.907Z,54.40
2023-04-18T13:48:37.895Z,54.50
2023-04-18T13:51:05.958Z,54.50
2023-04-18T13:53:33.567Z,54.60
2023-04-18T13:56:01.968Z,54.60
2023-04-18T13:58:29.921Z,54.60
2023-04-18T14:00:58.369Z,54.70
2023-04-18T14:03:26.839Z,54.70
2023-04-18T14:05:55.446Z,54.80
2023-04-18T14:08:23.000Z,54.80
2023-04-18T14:10:50.966Z,54.90
2023-04-18T14:13:18.565Z,54.90
2023-04-18T14:15:46.204Z,54.90
2023-04-18T14:18:14.671Z,54.90
2023-04-18T14:20:42.314Z,54.90
2023-04-18T14:23:09.976Z,55.00
2023-04-18T14:25:37.964Z,55.00
2023-04-18T14:28:12.504Z,55.00
2023-04-18T14:30:41.367Z,55.00
2023-04-18T14:33:10.408Z,55.10
2023-04-18T14:35:38.042Z,55.10
2023-04-18T14:38:05.715Z,55.10
2023-04-18T14:40:33.413Z,55.10
2023-04-18T14:43:01.187Z,55.20
2023-04-18T14:45:28.773Z,55.30
2023-04-18T14:47:57.246Z,55.20
2023-04-18T14:50:25.036Z,55.30
2023-04-18T14:52:52.695Z,55.30
2023-04-18T14:55:21.204Z,55.30
2023-04-18T14:57:49.717Z,55.30
2023-04-18T15:00:17.468Z,55.30
2023-04-18T15:02:45.270Z,55.30
2023-04-18T15:05:13.508Z,55.10
2023-04-18T15:07:43.117Z,55.40
2023-04-18T15:10:13.244Z,55.30
2023-04-18T15:12:41.773Z,55.40
2023-04-18T15:15:09.549Z,55.40
2023-04-18T15:17:37.203Z,55.40
2023-04-18T15:20:07.427Z,55.40
2023-04-18T15:22:35.275Z,55.50
2023-04-18T15:25:04.304Z,55.60
2023-04-18T15:27:32.697Z,55.50
2023-04-18T15:30:00.389Z,55.60
2023-04-18T15:32:27.998Z,55.60
2023-04-18T15:34:55.682Z,55.70
2023-04-18T15:37:24.669Z,55.70
2023-04-18T15:39:52.248Z,55.80
2023-04-18T15:42:19.856Z,55.80
2023-04-18T15:44:47.562Z,55.90
2023-04-18T15:47:15.214Z,55.90
2023-04-18T15:49:42.812Z,56.00
2023-04-18T15:52:10.379Z,56.00
2023-04-18T15:54:41.794Z,56.10
2023-04-18T15:57:10.003Z,56.10
2023-04-18T15:59:37.888Z,56.10
2023-04-18T16:02:07.056Z,56.20
2023-04-18T16:04:34.881Z,56.30
2023-04-18T16:07:04.020Z,56.30
2023-04-18T16:09:32.059Z,56.30
2023-04-18T16:12:00.555Z,56.40
2023-04-18T16:14:28.203Z,56.70
2023-04-18T16:16:55.921Z,56.80
2023-04-18T16:19:23.874Z,56.90
2023-04-18T16:21:51.516Z,57.40
2023-04-18T16:24:19.144Z,56.80
2023-04-18T16:26:46.852Z,56.80
2023-04-18T16:29:15.285Z,56.90
2023-04-18T16:31:43.460Z,56.90
2023-04-18T16:34:11.202Z,57.10
2023-04-18T16:36:38.854Z,57.10
2023-04-18T16:39:06.452Z,57.00
2023-04-18T16:41:34.244Z,57.10
2023-04-18T16:44:01.807Z,57.20
2023-04-18T16:46:32.538Z,57.10
2023-04-18T16:49:01.784Z,57.20
2023-04-18T16:51:30.203Z,57.30
2023-04-18T16:53:57.758Z,57.30
2023-04-18T16:56:26.339Z,57.50
2023-04-18T16:58:54.698Z,57.50
2023-04-18T17:01:22.390Z,57.50
2023-04-18T17:03:50.145Z,57.60
2023-04-18T17:06:20.485Z,57.90
2023-04-18T17:08:50.008Z,57.80
2023-04-18T17:11:17.928Z,57.60
2023-04-18T17:13:45.530Z,57.90
2023-04-18T17:16:13.961Z,57.70
2023-04-18T17:18:42.756Z,57.80
2023-04-18T17:21:12.763Z,57.70
2023-04-18T17:23:42.667Z,58.10
2023-04-18T17:26:10.543Z,58.20
2023-04-18T17:28:38.211Z,58.10
2023-04-18T17:31:05.902Z,58.10
2023-04-18T17:33:33.515Z,58.20
2023-04-18T17:36:01.156Z,58.30
2023-04-18T17:38:28.720Z,58.50
2023-04-18T17:40:59.900Z,58.50
2023-04-18T17:43:28.400Z,58.50
2023-04-18T17:45:57.125Z,58.80
2023-04-18T17:48:24.846Z,59.20
2023-04-18T17:50:52.434Z,59.80
2023-04-18T17:53:20.101Z,59.60
2023-04-18T17:55:50.714Z,59.40
2023-04-18T17:58:19.141Z,59.10
2023-04-18T18:00:46.997Z,59.00
2023-04-18T18:03:16.408Z,59.20
2023-04-18T18:05:47.564Z,59.30
2023-04-18T18:08:15.957Z,59.20
2023-04-18T18:10:46.496Z,59.80
2023-04-18T18:13:14.990Z,59.60
2023-04-18T18:15:42.527Z,59.30
2023-04-18T18:18:10.440Z,59.80
2023-04-18T18:20:38.093Z,60.90
2023-04-18T18:23:07.273Z,60.00
2023-04-18T18:25:37.277Z,60.70
2023-04-18T18:28:05.048Z,60.30
2023-04-18T18:30:32.618Z,59.90
2023-04-18T18:33:01.851Z,59.80
2023-04-18T18:35:29.545Z,59.90
2023-04-18T18:37:57.124Z,60.20
2023-04-18T18:40:24.744Z,60.00
2023-04-18T18:42:54.825Z,60.50
2023-04-18T18:45:22.537Z,60.30
2023-04-18T18:47:51.013Z,60.60
2023-04-18T18:50:19.534Z,60.40
2023-04-18T18:52:47.423Z,60.50
2023-04-18T18:55:16.030Z,61.10
2023-04-18T18:57:43.706Z,60.60
2023-04-18T19:00:11.794Z,60.60
2023-04-18T19:02:40.204Z,61.60
2023-04-18T19:05:08.070Z,60.90
2023-04-18T19:07:36.644Z,61.30
2023-04-18T19:10:04.879Z,61.00
2023-04-18T19:12:33.302Z,62.20
2023-04-18T19:15:00.877Z,61.70
2023-04-18T19:17:28.487Z,61.40
2023-04-18T19:19:58.231Z,61.60
2023-04-18T19:22:25.813Z,61.60
2023-04-18T19:24:53.579Z,61.70
2023-04-18T19:27:22.149Z,62.50
2023-04-18T19:29:50.574Z,62.00
2023-04-18T19:32:18.145Z,62.00
2023-04-18T19:34:46.736Z,63.60
2023-04-18T19:37:14.373Z,63.70
2023-04-18T19:39:42.003Z,62.80
2023-04-18T19:42:09.641Z,63.40
2023-04-18T19:44:37.311Z,63.90
2023-04-18T19:47:05.052Z,63.10
2023-04-18T19:49:32.700Z,63.20
2023-04-18T19:52:00.253Z,62.90
2023-04-18T19:54:28.641Z,63.00
2023-04-18T19:56:56.735Z,63.60
2023-04-18T19:59:25.092Z,64.20
2023-04-18T20:01:52.651Z,63.20
2023-04-18T20:04:20.341Z,63.80
2023-04-18T20:06:48.015Z,64.70
2023-04-18T20:09:17.676Z,64.10
2023-04-18T20:11:46.790Z,65.60
2023-04-18T20:14:14.460Z,64.20
2023-04-18T20:16:43.850Z,64.10
2023-04-18T20:19:12.641Z,65.10
2023-04-18T20:21:41.634Z,66.80
2023-04-18T20:24:09.955Z,65.90
2023-04-18T20:26:37.592Z,64.70
2023-04-18T20:29:05.205Z,67.20
2023-04-18T20:31:32.740Z,65.60
2023-04-18T20:34:00.373Z,66.70
2023-04-18T20:36:29.325Z,65.70
2023-04-18T20:38:56.869Z,65.60
2023-04-18T20:41:26.944Z,65.50
2023-04-18T20:43:54.601Z,65.40
2023-04-18T20:46:22.255Z,68.30
2023-04-18T20:48:49.901Z,67.60
2023-04-18T20:51:17.566Z,67.30
2023-04-18T20:53:45.133Z,68.00
2023-04-18T20:56:12.702Z,66.60
2023-04-18T20:58:41.162Z,67.70
2023-04-18T21:01:08.880Z,68.20
2023-04-18T21:03:36.681Z,66.40
2023-04-18T21:06:04.680Z,66.20
2023-04-18T21:08:35.699Z,65.90
2023-04-18T21:11:03.337Z,67.30
2023-04-18T21:13:32.686Z,66.80
2023-04-18T21:16:01.900Z,66.10
2023-04-18T21:18:31.225Z,65.70
2023-04-18T21:20:59.593Z,67.40
2023-04-18T21:23:27.168Z,66.70
2023-04-18T21:25:55.580Z,66.10
2023-04-18T21:28:23.234Z,66.40
2023-04-18T21:30:50.978Z,66.00
2023-04-18T21:33:19.530Z,66.30
2023-04-18T21:35:47.493Z,68.10
2023-04-18T21:38:15.121Z,67.00
2023-04-18T21:40:42.696Z,67.00
2023-04-18T21:43:11.141Z,68.90
2023-04-18T21:45:38.752Z,67.30
2023-04-18T21:48:07.262Z,67.50
2023-04-18T21:50:34.820Z,67.50
2023-04-18T21:53:02.446Z,67.70
2023-04-18T21:55:30.224Z,67.80
2023-04-18T21:57:57.880Z,68.70
2023-04-18T22:00:25.492Z,67.80
2023-04-18T22:02:53.379Z,69.60
2023-04-18T22:05:21.102Z,68.60
2023-04-18T22:07:57.379Z,71.20
2023-04-18T22:10:25.959Z,69.30
2023-04-18T22:12:56.321Z,69.50
2023-04-18T22:15:24.688Z,69.30
2023-04-18T22:17:53.280Z,68.70
2023-04-18T22:20:21.822Z,69.70
2023-04-18T22:22:50.196Z,69.20
2023-04-18T22:25:18.773Z,69.70
2023-04-18T22:27:47.606Z,70.80
2023-04-18T22:30:15.715Z,70.90
2023-04-18T22:32:43.374Z,70.00
2023-04-18T22:35:11.097Z,70.20
2023-04-18T22:37:38.676Z,70.90
2023-04-18T22:40:06.641Z,69.40
2023-04-18T22:42:35.188Z,68.70
2023-04-18T22:45:04.582Z,69.90
2023-04-18T22:47:32.223Z,71.60
2023-04-18T22:49:59.800Z,71.10
2023-04-18T22:52:27.421Z,69.60
2023-04-18T22:54:55.062Z,68.50
2023-04-18T22:57:22.627Z,69.70
2023-04-18T22:59:50.248Z,69.00
2023-04-18T23:02:18.002Z,69.60
2023-04-18T23:04:47.102Z,71.10
2023-04-18T23:07:39.271Z,70.40
2023-04-18T23:10:07.360Z,70.70
2023-04-18T23:12:35.225Z,71.90
2023-04-18T23:15:02.748Z,69.40
2023-04-18T23:17:30.416Z,70.30
2023-04-18T23:19:59.378Z,70.30
2023-04-18T23:22:27.090Z,72.30
2023-04-18T23:24:55.339Z,70.00
2023-04-18T23:27:22.923Z,70.00
2023-04-18T23:29:50.634Z,73.10
2023-04-18T23:32:18.165Z,73.70
2023-04-18T23:34:46.224Z,70.60
2023-04-18T23:37:13.750Z,71.00
2023-04-18T23:39:41.287Z,71.70
2023-04-18T23:42:08.915Z,70.00
2023-04-18T23:44:37.365Z,70.00
2023-04-18T23:47:04.949Z,71.00
2023-04-18T23:49:32.718Z,70.80
2023-04-18T23:52:00.253Z,71.00
2023-04-18T23:54:28.743Z,70.80
2023-04-18T23:56:58.201Z,71.10
2023-04-18T23:59:25.976Z,71.10
